createdAt,value
2022-09-28T00:00:00.496Z,12.79
2022-09-28T00:01:00.273Z,12.94
2022-09-28T00:02:00.869Z,12.86
2022-09-28T00:03:00.576Z,12.91
2022-09-28T00:04:00.310Z,12.9
2022-09-28T00:05:00.326Z,12.87
2022-09-28T00:06:00.599Z,12.91
2022-09-28T00:07:00.357Z,12.91
2022-09-28T00:08:00.627Z,12.9
2022-09-28T00:09:00.140Z,12.9
2022-09-28T00:10:00.422Z,12.85
2022-09-28T00:11:00.686Z,12.86
2022-09-28T00:12:00.708Z,12.86
2022-09-28T00:13:00.458Z,12.93
2022-09-28T00:14:00.906Z,12.9
2022-09-28T00:15:00.862Z,12.83
2022-09-28T00:16:00.916Z,12.91
2022-09-28T00:17:00.816Z,12.9
2022-09-28T00:18:00.552Z,12.95
2022-09-28T00:19:01.224Z,12.86
2022-09-28T00:20:00.587Z,12.86
2022-09-28T00:21:00.607Z,12.93
2022-09-28T00:22:00.879Z,12.78
2022-09-28T00:23:00.890Z,12.9
2022-09-28T00:24:00.658Z,12.82
2022-09-28T00:25:00.676Z,12.85
2022-09-28T00:26:00.948Z,12.82
2022-09-28T00:27:00.964Z,12.86
2022-09-28T00:28:00.987Z,12.93
2022-09-28T00:29:01.021Z,12.97
2022-09-28T00:30:01.037Z,12.93
2022-09-28T00:31:01.062Z,12.73
2022-09-28T00:32:01.163Z,12.93
2022-09-28T00:33:01.098Z,12.8
2022-09-28T00:34:01.091Z,12.78
2022-09-28T00:35:00.594Z,12.76
2022-09-28T00:36:00.606Z,12.73
2022-09-28T00:37:00.900Z,12.8
2022-09-28T00:38:00.903Z,12.79
2022-09-28T00:39:01.174Z,12.75
2022-09-28T00:40:00.940Z,12.76
2022-09-28T00:41:01.196Z,12.79
2022-09-28T00:42:01.247Z,12.8
2022-09-28T00:43:01.239Z,12.87
2022-09-28T00:44:00.763Z,12.93
2022-09-28T00:45:01.283Z,12.78
2022-09-28T00:46:01.360Z,12.87
2022-09-28T00:47:01.353Z,12.75
2022-09-28T00:48:01.334Z,12.82
2022-09-28T00:49:01.375Z,12.83
2022-09-28T00:50:00.852Z,12.87
2022-09-28T00:51:01.387Z,12.78
2022-09-28T00:52:00.888Z,12.82
2022-09-28T00:53:01.423Z,12.87
2022-09-28T00:54:00.937Z,12.79
2022-09-28T00:55:01.203Z,12.76
2022-09-28T00:56:01.217Z,12.87
2022-09-28T00:57:01.498Z,12.79
2022-09-28T00:58:01.499Z,12.9
2022-09-28T00:59:01.535Z,12.82
2022-09-28T01:00:01.542Z,12.78
2022-09-28T01:01:02.044Z,12.76
2022-09-28T01:02:01.588Z,12.79
2022-09-28T01:03:01.635Z,12.76
2022-09-28T01:04:01.615Z,12.78
2022-09-28T01:05:01.666Z,12.79
2022-09-28T01:06:01.675Z,12.79
2022-09-28T01:07:01.670Z,12.8
2022-09-28T01:08:01.685Z,12.79
2022-09-28T01:09:01.191Z,12.79
2022-09-28T01:10:01.470Z,12.78
2022-09-28T01:11:01.751Z,12.76
2022-09-28T01:12:01.747Z,12.79
2022-09-28T01:13:01.562Z,12.76
2022-09-28T01:14:01.538Z,12.82
2022-09-28T01:15:01.795Z,12.8
2022-09-28T01:16:01.977Z,12.79
2022-09-28T01:17:01.585Z,12.79
2022-09-28T01:18:01.713Z,12.8
2022-09-28T01:19:01.750Z,12.75
2022-09-28T01:20:01.622Z,12.8
2022-09-28T01:21:01.931Z,12.8
2022-09-28T01:22:01.670Z,12.8
2022-09-28T01:23:01.933Z,12.8
2022-09-28T01:24:01.960Z,12.75
2022-09-28T01:25:01.980Z,12.83
2022-09-28T01:26:01.735Z,12.8
2022-09-28T01:27:01.763Z,12.76
2022-09-28T01:28:02.022Z,12.85
2022-09-28T01:29:02.041Z,12.8
2022-09-28T01:30:01.813Z,12.73
2022-09-28T01:31:01.847Z,12.75
2022-09-28T01:32:02.366Z,12.85
2022-09-28T01:33:01.857Z,12.82
2022-09-28T01:34:01.648Z,12.78
2022-09-28T01:35:01.918Z,12.78
2022-09-28T01:36:01.901Z,12.82
2022-09-28T01:37:01.951Z,12.83
2022-09-28T01:38:01.954Z,12.78
2022-09-28T01:39:01.958Z,12.78
2022-09-28T01:40:02.237Z,12.76
2022-09-28T01:41:01.878Z,12.85
2022-09-28T01:42:01.762Z,12.79
2022-09-28T01:43:02.026Z,12.75
2022-09-28T01:44:01.789Z,12.85
2022-09-28T01:45:02.331Z,12.7
2022-09-28T01:46:02.568Z,12.68
2022-09-28T01:47:02.362Z,12.72
2022-09-28T01:48:01.867Z,12.7
2022-09-28T01:49:02.402Z,12.7
2022-09-28T01:50:02.435Z,12.79
2022-09-28T01:51:02.456Z,12.8
2022-09-28T01:52:02.197Z,12.72
2022-09-28T01:53:02.502Z,12.79
2022-09-28T01:54:02.525Z,12.83
2022-09-28T01:55:02.257Z,12.75
2022-09-28T01:56:02.528Z,12.68
2022-09-28T01:57:02.535Z,12.68
2022-09-28T01:58:02.549Z,12.78
2022-09-28T01:59:02.570Z,12.68
2022-09-28T02:00:02.329Z,12.68
2022-09-28T02:01:02.574Z,12.7
2022-09-28T02:02:02.779Z,12.79
2022-09-28T02:03:02.649Z,12.79
2022-09-28T02:04:02.663Z,12.68
2022-09-28T02:05:02.675Z,12.79
2022-09-28T02:06:02.471Z,12.7
2022-09-28T02:07:02.882Z,12.78
2022-09-28T02:08:02.591Z,12.73
2022-09-28T02:09:02.928Z,12.79
2022-09-28T02:10:02.494Z,12.75
2022-09-28T02:11:02.870Z,12.68
2022-09-28T02:12:02.578Z,12.76
2022-09-28T02:13:02.296Z,12.73
2022-09-28T02:14:02.838Z,12.7
2022-09-28T02:15:02.619Z,12.79
2022-09-28T02:16:03.018Z,12.7
2022-09-28T02:17:02.933Z,12.7
2022-09-28T02:18:02.906Z,12.68
2022-09-28T02:19:03.161Z,12.78
2022-09-28T02:20:02.717Z,12.7
2022-09-28T02:21:02.691Z,12.68
2022-09-28T02:22:02.729Z,12.72
2022-09-28T02:23:03.008Z,12.72
2022-09-28T02:24:03.033Z,12.78
2022-09-28T02:25:02.874Z,12.7
2022-09-28T02:26:03.039Z,12.72
2022-09-28T02:27:02.897Z,12.68
2022-09-28T02:28:02.577Z,12.67
2022-09-28T02:29:02.843Z,12.78
2022-09-28T02:30:03.098Z,12.7
2022-09-28T02:31:02.912Z,12.75
2022-09-28T02:32:02.630Z,12.79
2022-09-28T02:33:03.161Z,12.79
2022-09-28T02:34:02.915Z,12.67
2022-09-28T02:35:02.679Z,12.73
2022-09-28T02:36:02.970Z,12.68
2022-09-28T02:37:03.221Z,12.8
2022-09-28T02:38:03.016Z,12.65
2022-09-28T02:39:03.305Z,12.72
2022-09-28T02:40:03.274Z,12.8
2022-09-28T02:41:03.534Z,12.8
2022-09-28T02:42:03.053Z,12.72
2022-09-28T02:43:03.082Z,12.79
2022-09-28T02:44:03.096Z,12.67
2022-09-28T02:45:03.110Z,12.65
2022-09-28T02:46:03.485Z,12.76
2022-09-28T02:47:03.138Z,12.75
2022-09-28T02:48:03.164Z,12.68
2022-09-28T02:49:25.346Z,12.68
2022-09-28T02:50:03.194Z,12.67
2022-09-28T02:51:03.219Z,12.67
2022-09-28T02:52:03.484Z,12.78
2022-09-28T02:53:03.246Z,12.82
2022-09-28T02:54:03.548Z,12.75
2022-09-28T02:55:03.563Z,12.83
2022-09-28T02:56:03.304Z,12.76
2022-09-28T02:57:03.349Z,12.7
2022-09-28T02:58:03.336Z,12.8
2022-09-28T02:59:03.605Z,12.79
2022-09-28T03:00:03.612Z,12.79
2022-09-28T03:01:03.903Z,12.72
2022-09-28T03:02:03.942Z,12.68
2022-09-28T03:03:03.673Z,12.75
2022-09-28T03:04:03.183Z,12.67
2022-09-28T03:05:03.454Z,12.73
2022-09-28T03:06:03.471Z,12.72
2022-09-28T03:07:03.857Z,12.78
2022-09-28T03:08:03.269Z,12.8
2022-09-28T03:09:03.527Z,12.79
2022-09-28T03:10:03.820Z,12.75
2022-09-28T03:11:03.844Z,12.64
2022-09-28T03:12:03.838Z,12.68
2022-09-28T03:13:03.624Z,12.65
2022-09-28T03:14:03.872Z,12.7
2022-09-28T03:15:03.898Z,12.68
2022-09-28T03:16:04.075Z,12.67
2022-09-28T03:17:03.923Z,12.7
2022-09-28T03:18:03.681Z,12.64
2022-09-28T03:19:03.754Z,12.79
2022-09-28T03:20:03.966Z,12.78
2022-09-28T03:21:03.732Z,12.65
2022-09-28T03:22:03.744Z,12.72
2022-09-28T03:23:29.138Z,12.65
2022-09-28T03:24:04.056Z,12.65
2022-09-28T03:25:04.106Z,12.73
2022-09-28T03:26:04.126Z,12.73
2022-09-28T03:27:03.867Z,12.73
2022-09-28T03:28:03.905Z,12.75
2022-09-28T03:29:03.893Z,12.73
2022-09-28T03:30:03.881Z,12.73
2022-09-28T03:31:03.981Z,12.68
2022-09-28T03:32:04.273Z,12.75
2022-09-28T03:33:04.206Z,12.62
2022-09-28T03:34:04.216Z,12.76
2022-09-28T03:35:03.982Z,12.62
2022-09-28T03:36:04.274Z,12.73
2022-09-28T03:37:04.023Z,12.72
2022-09-28T03:38:04.064Z,12.65
2022-09-28T03:39:04.200Z,12.76
2022-09-28T03:40:04.361Z,12.7
2022-09-28T03:41:04.415Z,12.76
2022-09-28T03:42:04.137Z,12.76
2022-09-28T03:43:04.408Z,12.7
2022-09-28T03:44:04.133Z,12.58
2022-09-28T03:45:04.212Z,12.7
2022-09-28T03:46:04.830Z,12.79
2022-09-28T03:47:04.450Z,12.58
2022-09-28T03:48:03.947Z,12.62
2022-09-28T03:49:04.225Z,12.73
2022-09-28T03:50:04.512Z,12.72
2022-09-28T03:51:04.273Z,12.65
2022-09-28T03:52:04.278Z,12.61
2022-09-28T03:53:04.294Z,12.68
2022-09-28T03:54:04.321Z,12.67
2022-09-28T03:55:04.067Z,12.65
2022-09-28T03:56:04.343Z,12.65
2022-09-28T03:57:04.618Z,12.75
2022-09-28T03:58:04.670Z,12.72
2022-09-28T03:59:04.675Z,12.73
2022-09-28T04:00:04.469Z,12.6
2022-09-28T04:01:04.919Z,12.67
2022-09-28T04:02:04.712Z,12.73
2022-09-28T04:03:04.462Z,12.61
2022-09-28T04:04:04.489Z,12.76
2022-09-28T04:05:04.498Z,12.64
2022-09-28T04:06:04.778Z,12.73
2022-09-28T04:07:04.805Z,12.6
2022-09-28T04:08:04.546Z,12.64
2022-09-28T04:09:04.861Z,12.7
2022-09-28T04:10:04.862Z,12.72
2022-09-28T04:11:04.856Z,12.64
2022-09-28T04:12:08.755Z,12.61
2022-09-28T04:13:04.903Z,12.57
2022-09-28T04:14:04.948Z,12.62
2022-09-28T04:15:04.705Z,12.62
2022-09-28T04:16:04.916Z,12.64
2022-09-28T04:17:04.986Z,12.75
2022-09-28T04:18:04.725Z,12.65
2022-09-28T04:19:05.739Z,12.65
2022-09-28T04:20:04.766Z,12.6
2022-09-28T04:21:05.190Z,12.57
2022-09-28T04:22:05.052Z,12.73
2022-09-28T04:23:05.085Z,12.61
2022-09-28T04:24:05.079Z,12.73
2022-09-28T04:25:04.593Z,12.6
2022-09-28T04:26:04.895Z,12.61
2022-09-28T04:27:05.233Z,12.6
2022-09-28T04:28:04.907Z,12.57
2022-09-28T04:29:09.982Z,12.55
2022-09-28T04:30:05.295Z,12.54
2022-09-28T04:31:05.335Z,12.54
2022-09-28T04:32:05.434Z,12.58
2022-09-28T04:33:05.064Z,12.6
2022-09-28T04:34:04.741Z,12.6
2022-09-28T04:35:05.122Z,12.57
2022-09-28T04:36:05.298Z,12.6
2022-09-28T04:37:05.316Z,12.64
2022-09-28T04:38:05.063Z,12.57
2022-09-28T04:39:04.846Z,12.61
2022-09-28T04:40:05.357Z,12.54
2022-09-28T04:41:05.312Z,12.64
2022-09-28T04:42:05.336Z,12.54
2022-09-28T04:43:05.059Z,12.65
2022-09-28T04:44:05.182Z,12.55
2022-09-28T04:45:05.066Z,12.57
2022-09-28T04:46:05.743Z,12.6
2022-09-28T04:47:09.986Z,12.67
2022-09-28T04:48:05.035Z,12.58
2022-09-28T04:49:05.285Z,12.65
2022-09-28T04:50:05.269Z,12.57
2022-09-28T04:51:05.557Z,12.64
2022-09-28T04:52:05.570Z,12.57
2022-09-28T04:53:05.330Z,12.55
2022-09-28T04:54:05.605Z,12.54
2022-09-28T04:55:05.363Z,12.57
2022-09-28T04:56:05.387Z,12.58
2022-09-28T04:57:05.407Z,12.5
2022-09-28T04:58:05.423Z,12.53
2022-09-28T04:59:05.439Z,12.55
2022-09-28T05:00:05.265Z,12.61
2022-09-28T05:01:06.083Z,12.62
2022-09-28T05:02:05.679Z,12.6
2022-09-28T05:03:05.784Z,12.65
2022-09-28T05:04:05.517Z,12.64
2022-09-28T05:05:05.821Z,12.68
2022-09-28T05:06:05.822Z,12.58
2022-09-28T05:07:05.818Z,12.5
2022-09-28T05:08:05.838Z,12.61
2022-09-28T05:09:05.358Z,12.54
2022-09-28T05:10:05.625Z,12.62
2022-09-28T05:11:05.645Z,12.64
2022-09-28T05:12:05.909Z,12.55
2022-09-28T05:13:05.673Z,12.65
2022-09-28T05:14:05.701Z,12.61
2022-09-28T05:15:05.715Z,12.61
2022-09-28T05:16:10.180Z,12.6
2022-09-28T05:17:06.156Z,12.65
2022-09-28T05:18:05.777Z,12.62
2022-09-28T05:19:06.426Z,12.57
2022-09-28T05:20:05.790Z,12.57
2022-09-28T05:21:06.095Z,12.58
2022-09-28T05:22:06.082Z,12.54
2022-09-28T05:23:06.103Z,12.6
2022-09-28T05:24:06.121Z,12.6
2022-09-28T05:25:05.902Z,12.65
2022-09-28T05:26:06.161Z,12.61
2022-09-28T05:27:06.175Z,12.6
2022-09-28T05:28:06.043Z,12.55
2022-09-28T05:29:05.693Z,12.62
2022-09-28T05:30:05.974Z,12.62
2022-09-28T05:31:05.729Z,12.58
2022-09-28T05:32:06.612Z,12.61
2022-09-28T05:33:06.290Z,12.58
2022-09-28T05:34:06.053Z,12.58
2022-09-28T05:35:06.339Z,12.64
2022-09-28T05:36:06.918Z,12.62
2022-09-28T05:37:06.387Z,12.58
2022-09-28T05:38:06.105Z,12.6
2022-09-28T05:39:06.435Z,12.61
2022-09-28T05:40:06.153Z,12.64
2022-09-28T05:41:11.370Z,12.6
2022-09-28T05:42:06.187Z,12.58
2022-09-28T05:43:06.194Z,12.6
2022-09-28T05:44:06.226Z,12.6
2022-09-28T05:45:06.504Z,12.6
2022-09-28T05:46:06.581Z,12.6
2022-09-28T05:47:06.275Z,12.55
2022-09-28T05:48:06.301Z,12.58
2022-09-28T05:49:06.557Z,12.57
2022-09-28T05:50:06.327Z,12.55
2022-09-28T05:51:06.368Z,12.58
2022-09-28T05:52:06.343Z,12.61
2022-09-28T05:53:06.662Z,12.6
2022-09-28T05:54:10.555Z,12.58
2022-09-28T05:55:06.674Z,12.55
2022-09-28T05:56:06.694Z,12.58
2022-09-28T05:57:06.440Z,12.58
2022-09-28T05:58:06.722Z,12.53
2022-09-28T05:59:06.483Z,12.61
2022-09-28T06:00:06.511Z,12.58
2022-09-28T06:01:07.034Z,12.58
2022-09-28T06:02:06.738Z,12.6
2022-09-28T06:03:11.880Z,12.58
2022-09-28T06:04:06.827Z,12.6
2022-09-28T06:05:06.874Z,12.57
2022-09-28T06:06:06.869Z,12.57
2022-09-28T06:07:06.648Z,12.57
2022-09-28T06:08:06.390Z,12.55
2022-09-28T06:09:06.677Z,12.58
2022-09-28T06:10:06.716Z,12.58
2022-09-28T06:11:06.476Z,12.58
2022-09-28T06:12:06.971Z,12.57
2022-09-28T06:13:06.735Z,12.58
2022-09-28T06:14:06.742Z,12.6
2022-09-28T06:15:06.766Z,12.55
2022-09-28T06:16:07.030Z,12.64
2022-09-28T06:17:07.122Z,12.58
2022-09-28T06:18:07.072Z,12.55
2022-09-28T06:19:07.270Z,12.61
2022-09-28T06:20:07.101Z,12.58
2022-09-28T06:21:06.604Z,12.62
2022-09-28T06:22:07.147Z,12.62
2022-09-28T06:23:06.910Z,12.62
2022-09-28T06:24:06.654Z,12.62
2022-09-28T06:25:06.992Z,12.62
2022-09-28T06:26:06.962Z,12.6
2022-09-28T06:27:07.225Z,12.6
2022-09-28T06:28:07.250Z,12.55
2022-09-28T06:29:07.295Z,12.62
2022-09-28T06:30:07.268Z,12.6
2022-09-28T06:31:07.343Z,12.64
2022-09-28T06:32:07.043Z,12.73
2022-09-28T06:33:07.319Z,12.62
2022-09-28T06:34:07.088Z,12.72
2022-09-28T06:35:06.867Z,12.76
2022-09-28T06:36:07.128Z,12.65
2022-09-28T06:37:07.402Z,12.65
2022-09-28T06:38:07.404Z,12.73
2022-09-28T06:39:07.203Z,12.78
2022-09-28T06:40:07.452Z,12.72
2022-09-28T06:41:07.462Z,12.73
2022-09-28T06:42:07.485Z,12.67
2022-09-28T06:43:07.237Z,12.68
2022-09-28T06:44:07.514Z,12.68
2022-09-28T06:45:07.492Z,12.78
2022-09-28T06:46:07.910Z,12.65
2022-09-28T06:47:07.418Z,12.7
2022-09-28T06:48:07.736Z,12.67
2022-09-28T06:49:07.499Z,12.72
2022-09-28T06:50:07.728Z,12.73
2022-09-28T06:51:07.830Z,12.7
2022-09-28T06:52:07.476Z,12.8
2022-09-28T06:53:07.765Z,12.75
2022-09-28T06:54:07.489Z,12.85
2022-09-28T06:55:07.563Z,12.78
2022-09-28T06:56:07.476Z,12.75
2022-09-28T06:57:07.759Z,12.82
2022-09-28T06:58:07.772Z,12.8
2022-09-28T06:59:07.269Z,12.8
2022-09-28T07:00:07.795Z,12.8
2022-09-28T07:01:07.584Z,12.78
2022-09-28T07:02:07.993Z,12.79
2022-09-28T07:03:07.854Z,12.82
2022-09-28T07:04:07.859Z,12.9
2022-09-28T07:05:07.622Z,12.87
2022-09-28T07:06:07.652Z,12.86
2022-09-28T07:07:07.725Z,12.91
2022-09-28T07:08:07.421Z,12.91
2022-09-28T07:09:39.726Z,12.91
2022-09-28T07:10:07.978Z,12.91
2022-09-28T07:11:07.753Z,12.87
2022-09-28T07:12:07.754Z,12.91
2022-09-28T07:13:22.349Z,12.9
2022-09-28T07:14:08.195Z,12.9
2022-09-28T07:15:07.795Z,12.85
2022-09-28T07:16:07.918Z,12.86
2022-09-28T07:17:18.563Z,12.87
2022-09-28T07:18:09.146Z,12.85
2022-09-28T07:19:08.019Z,12.86
2022-09-28T07:20:22.144Z,12.91
2022-09-28T07:21:09.327Z,12.9
2022-09-28T07:22:12.261Z,12.94
2022-09-28T07:23:22.238Z,12.94
2022-09-28T07:24:08.216Z,12.93
2022-09-28T07:25:07.991Z,12.94
2022-09-28T07:26:11.776Z,12.91
2022-09-28T07:27:08.265Z,12.94
2022-09-28T07:28:08.288Z,12.95
2022-09-28T07:29:08.337Z,13
2022-09-28T07:30:08.311Z,12.98
2022-09-28T07:31:08.759Z,13.01
2022-09-28T07:32:08.098Z,13.03
2022-09-28T07:33:08.379Z,13
2022-09-28T07:34:08.382Z,13.03
2022-09-28T07:35:08.151Z,13
2022-09-28T07:36:08.425Z,12.98
2022-09-28T07:37:08.490Z,13
2022-09-28T07:38:08.235Z,13
2022-09-28T07:39:08.224Z,12.97
2022-09-28T07:40:08.511Z,13.01
2022-09-28T07:41:08.428Z,13.01
2022-09-28T07:42:08.563Z,13
2022-09-28T07:43:08.048Z,13.03
2022-09-28T07:44:08.835Z,12.95
2022-09-28T07:45:08.353Z,13.05
2022-09-28T07:46:08.684Z,13.03
2022-09-28T07:47:08.615Z,13
2022-09-28T07:48:08.866Z,13
2022-09-28T07:49:14.597Z,13.08
2022-09-28T07:50:08.665Z,13.04
2022-09-28T07:51:08.431Z,13.01
2022-09-28T07:52:08.192Z,12.97
2022-09-28T07:53:08.479Z,13.04
2022-09-28T07:54:08.524Z,13.16
2022-09-28T07:55:11.814Z,13.13
2022-09-28T07:56:08.515Z,13.16
2022-09-28T07:57:08.807Z,13.12
2022-09-28T07:58:08.847Z,13.16
2022-09-28T07:59:08.575Z,13.16
2022-09-28T08:00:08.616Z,13.25
2022-09-28T08:01:09.291Z,13.18
2022-09-28T08:02:09.170Z,13.25
2022-09-28T08:03:08.896Z,13.19
2022-09-28T08:04:08.400Z,13.23
2022-09-28T08:05:08.956Z,13.18
2022-09-28T08:06:08.710Z,13.27
2022-09-28T08:07:08.977Z,13.13
2022-09-28T08:08:09.046Z,13.31
2022-09-28T08:09:09.217Z,13.33
2022-09-28T08:10:09.083Z,13.22
2022-09-28T08:11:08.797Z,13.19
2022-09-28T08:12:09.061Z,13.19
2022-09-28T08:13:12.337Z,13.2
2022-09-28T08:14:09.095Z,13.23
2022-09-28T08:15:08.862Z,13.2
2022-09-28T08:16:08.619Z,13.27
2022-09-28T08:17:09.198Z,13.27
2022-09-28T08:18:09.183Z,13.22
2022-09-28T08:19:08.883Z,13.27
2022-09-28T08:20:09.211Z,13.23
2022-09-28T08:21:09.223Z,13.38
2022-09-28T08:22:09.246Z,13.3
2022-09-28T08:23:09.006Z,13.35
2022-09-28T08:24:08.760Z,13.38
2022-09-28T08:25:09.303Z,13.42
2022-09-28T08:26:13.378Z,13.42
2022-09-28T08:27:08.817Z,13.44
2022-09-28T08:28:09.354Z,13.28
2022-09-28T08:29:09.387Z,13.46
2022-09-28T08:30:09.130Z,13.39
2022-09-28T08:31:09.673Z,13.39
2022-09-28T08:32:08.910Z,13.5
2022-09-28T08:33:09.463Z,13.44
2022-09-28T08:34:09.200Z,13.41
2022-09-28T08:35:09.227Z,13.47
2022-09-28T08:36:09.234Z,13.42
2022-09-28T08:37:08.996Z,13.57
2022-09-28T08:38:09.283Z,13.41
2022-09-28T08:39:09.543Z,13.54
2022-09-28T08:40:09.392Z,13.6
2022-09-28T08:41:09.425Z,13.54
2022-09-28T08:42:09.376Z,13.59
2022-09-28T08:43:09.356Z,13.54
2022-09-28T08:44:09.386Z,13.59
2022-09-28T08:45:09.428Z,13.62
2022-09-28T08:46:09.713Z,13.5
2022-09-28T08:47:09.691Z,13.54
2022-09-28T08:48:09.706Z,13.63
2022-09-28T08:49:39.773Z,13.6
2022-09-28T08:50:09.811Z,13.59
2022-09-28T08:51:09.759Z,13.62
2022-09-28T08:52:09.262Z,13.62
2022-09-28T08:53:09.536Z,13.56
2022-09-28T08:54:14.714Z,13.57
2022-09-28T08:55:09.846Z,13.6
2022-09-28T08:56:09.592Z,13.52
2022-09-28T08:57:09.866Z,13.42
2022-09-28T08:58:09.914Z,13.52
2022-09-28T08:59:09.665Z,13.54
2022-09-28T09:00:16.405Z,13.63
2022-09-28T09:01:10.182Z,13.6
2022-09-28T09:02:09.749Z,13.53
2022-09-28T09:03:09.745Z,13.56
2022-09-28T09:04:09.746Z,13.54
2022-09-28T09:05:09.777Z,13.56
2022-09-28T09:06:09.526Z,13.62
2022-09-28T09:07:10.051Z,13.59
2022-09-28T09:08:09.814Z,13.53
2022-09-28T09:09:09.824Z,13.53
2022-09-28T09:10:10.440Z,13.56
2022-09-28T09:11:10.130Z,13.56
2022-09-28T09:12:10.158Z,13.62
2022-09-28T09:13:09.901Z,13.56
2022-09-28T09:14:10.374Z,13.6
2022-09-28T09:15:10.200Z,13.62
2022-09-28T09:16:10.268Z,13.71
2022-09-28T09:17:10.131Z,13.59
2022-09-28T09:18:10.248Z,13.68
2022-09-28T09:19:10.470Z,13.6
2022-09-28T09:20:10.334Z,13.63
2022-09-28T09:21:10.080Z,13.67
2022-09-28T09:22:10.324Z,13.6
2022-09-28T09:23:10.353Z,13.53
2022-09-28T09:24:09.856Z,13.71
2022-09-28T09:25:10.137Z,13.67
2022-09-28T09:26:10.496Z,13.7
2022-09-28T09:27:10.432Z,13.67
2022-09-28T09:28:10.433Z,13.71
2022-09-28T09:29:10.448Z,13.68
2022-09-28T09:30:10.601Z,13.81
2022-09-28T09:31:10.681Z,13.72
2022-09-28T09:32:10.565Z,13.75
2022-09-28T09:33:10.517Z,13.72
2022-09-28T09:34:10.602Z,13.74
2022-09-28T09:35:10.554Z,13.85
2022-09-28T09:36:10.318Z,13.85
2022-09-28T09:37:10.617Z,13.72
2022-09-28T09:38:10.598Z,13.74
2022-09-28T09:39:10.387Z,13.77
2022-09-28T09:40:10.481Z,13.67
2022-09-28T09:41:11.045Z,13.71
2022-09-28T09:42:10.683Z,13.72
2022-09-28T09:43:10.692Z,13.71
2022-09-28T09:44:10.515Z,13.68
2022-09-28T09:45:10.739Z,13.7
2022-09-28T09:46:10.736Z,13.71
2022-09-28T09:47:10.518Z,13.63
2022-09-28T09:48:10.808Z,13.67
2022-09-28T09:49:10.803Z,13.63
2022-09-28T09:50:13.958Z,13.71
2022-09-28T09:51:10.846Z,13.68
2022-09-28T09:52:10.847Z,13.63
2022-09-28T09:53:10.922Z,13.63
2022-09-28T09:54:10.938Z,13.75
2022-09-28T09:55:10.919Z,13.74
2022-09-28T09:56:10.413Z,13.7
2022-09-28T09:57:10.436Z,13.7
2022-09-28T09:58:10.984Z,13.7
2022-09-28T09:59:10.767Z,13.72
2022-09-28T10:00:10.858Z,13.74
2022-09-28T10:01:11.263Z,13.7
2022-09-28T10:02:16.459Z,13.77
2022-09-28T10:03:10.799Z,13.68
2022-09-28T10:04:11.098Z,13.72
2022-09-28T10:05:10.593Z,13.67
2022-09-28T10:06:10.606Z,13.78
2022-09-28T10:07:11.131Z,13.72
2022-09-28T10:08:11.157Z,13.75
2022-09-28T10:09:11.213Z,13.79
2022-09-28T10:10:11.187Z,13.79
2022-09-28T10:11:10.951Z,13.81
2022-09-28T10:12:11.224Z,13.81
2022-09-28T10:13:10.998Z,13.92
2022-09-28T10:14:11.010Z,13.83
2022-09-28T10:15:10.753Z,13.81
2022-09-28T10:16:11.048Z,13.96
2022-09-28T10:17:11.307Z,13.96
2022-09-28T10:18:10.845Z,14
2022-09-28T10:19:11.088Z,13.99
2022-09-28T10:20:11.479Z,14.03
2022-09-28T10:21:11.121Z,13.96
2022-09-28T10:22:11.406Z,14.08
2022-09-28T10:23:11.422Z,14.03
2022-09-28T10:24:11.450Z,14
2022-09-28T10:25:11.221Z,13.97
2022-09-28T10:26:11.481Z,13.97
2022-09-28T10:27:10.976Z,13.97
2022-09-28T10:28:10.999Z,13.92
2022-09-28T10:29:11.536Z,13.9
2022-09-28T10:30:11.357Z,13.97
2022-09-28T10:31:11.324Z,13.97
2022-09-28T10:32:11.330Z,13.93
2022-09-28T10:33:11.354Z,13.96
2022-09-28T10:34:11.429Z,13.93
2022-09-28T10:35:11.642Z,14
2022-09-28T10:36:11.423Z,13.93
2022-09-28T10:37:11.682Z,14
2022-09-28T10:38:11.703Z,13.95
2022-09-28T10:39:11.702Z,14
2022-09-28T10:40:11.543Z,13.97
2022-09-28T10:41:11.917Z,14
2022-09-28T10:42:11.781Z,13.89
2022-09-28T10:43:11.522Z,13.89
2022-09-28T10:44:11.729Z,13.96
2022-09-28T10:45:11.816Z,13.96
2022-09-28T10:46:12.081Z,13.85
2022-09-28T10:47:11.341Z,13.97
2022-09-28T10:48:11.615Z,13.89
2022-09-28T10:49:11.669Z,13.9
2022-09-28T10:50:11.677Z,13.9
2022-09-28T10:51:11.745Z,13.97
2022-09-28T10:52:11.970Z,13.97
2022-09-28T10:53:11.712Z,13.99
2022-09-28T10:54:11.729Z,14.03
2022-09-28T10:55:12.002Z,13.97
2022-09-28T10:56:12.043Z,13.99
2022-09-28T10:57:17.566Z,14.03
2022-09-28T10:58:12.060Z,14.04
2022-09-28T10:59:12.071Z,14
2022-09-28T11:00:12.091Z,13.99
2022-09-28T11:01:12.316Z,14.03
2022-09-28T11:02:12.049Z,14
2022-09-28T11:03:11.894Z,13.99
2022-09-28T11:04:12.043Z,13.93
2022-09-28T11:05:11.935Z,13.97
2022-09-28T11:06:11.967Z,13.86
2022-09-28T11:07:12.467Z,13.83
2022-09-28T11:08:12.268Z,13.81
2022-09-28T11:09:12.003Z,13.87
2022-09-28T11:10:12.020Z,13.9
2022-09-28T11:11:12.295Z,13.86
2022-09-28T11:12:12.052Z,13.87
2022-09-28T11:13:12.108Z,13.85
2022-09-28T11:14:12.083Z,13.87
2022-09-28T11:15:12.371Z,13.83
2022-09-28T11:16:12.186Z,13.87
2022-09-28T11:17:12.238Z,13.81
2022-09-28T11:18:12.155Z,13.85
2022-09-28T11:19:12.447Z,13.81
2022-09-28T11:20:12.464Z,13.85
2022-09-28T11:21:16.439Z,13.92
2022-09-28T11:22:16.397Z,13.81
2022-09-28T11:23:12.542Z,13.86
2022-09-28T11:24:15.520Z,13.83
2022-09-28T11:25:12.547Z,13.85
2022-09-28T11:26:18.724Z,13.77
2022-09-28T11:27:12.589Z,13.81
2022-09-28T11:28:12.106Z,13.77
2022-09-28T11:29:12.655Z,13.77
2022-09-28T11:30:12.637Z,13.74
2022-09-28T11:31:12.944Z,13.83
2022-09-28T11:32:18.297Z,13.83
2022-09-28T11:33:12.713Z,13.79
2022-09-28T11:34:12.879Z,13.85
2022-09-28T11:35:12.728Z,13.9
2022-09-28T11:36:12.489Z,13.79
2022-09-28T11:37:12.536Z,13.74
2022-09-28T11:38:12.883Z,13.86
2022-09-28T11:39:12.668Z,13.86
2022-09-28T11:40:12.835Z,13.86
2022-09-28T11:41:12.891Z,13.83
2022-09-28T11:42:18.261Z,13.92
2022-09-28T11:43:16.575Z,13.86
2022-09-28T11:44:13.001Z,13.89
2022-09-28T11:45:12.710Z,13.79
2022-09-28T11:46:13.130Z,13.93
2022-09-28T11:47:12.952Z,13.85
2022-09-28T11:48:12.461Z,13.95
2022-09-28T11:49:12.827Z,13.9
2022-09-28T11:50:12.893Z,14.05
2022-09-28T11:51:12.867Z,14.08
2022-09-28T11:52:13.039Z,13.96
2022-09-28T11:53:13.082Z,14.08
2022-09-28T11:54:12.948Z,13.99
2022-09-28T11:55:13.092Z,13.96
2022-09-28T11:56:14.078Z,14
2022-09-28T11:57:13.160Z,14.1
2022-09-28T11:58:13.175Z,13.97
2022-09-28T11:59:12.910Z,14
2022-09-28T12:00:12.925Z,14.04
2022-09-28T12:01:18.848Z,14.03
2022-09-28T12:02:13.616Z,14
2022-09-28T12:03:13.514Z,14.05
2022-09-28T12:04:13.099Z,13.99
2022-09-28T12:05:15.898Z,14.04
2022-09-28T12:06:13.094Z,14.07
2022-09-28T12:07:12.903Z,13.96
2022-09-28T12:08:12.883Z,13.97
2022-09-28T12:09:13.148Z,13.95
2022-09-28T12:10:13.384Z,13.9
2022-09-28T12:11:13.130Z,13.96
2022-09-28T12:12:13.463Z,13.86
2022-09-28T12:13:13.163Z,13.85
2022-09-28T12:14:13.442Z,13.81
2022-09-28T12:15:13.192Z,13.87
2022-09-28T12:17:16.514Z,13.83
2022-09-28T12:17:28.601Z,13.78
2022-09-28T12:18:27.835Z,13.9
2022-09-28T12:19:28.309Z,13.86
2022-09-28T12:20:28.076Z,13.83
2022-09-28T12:21:28.092Z,13.77
2022-09-28T12:22:28.114Z,13.79
2022-09-28T12:23:28.387Z,13.79
2022-09-28T12:24:28.178Z,13.85
2022-09-28T12:25:28.168Z,13.86
2022-09-28T12:26:28.184Z,13.92
2022-09-28T12:27:28.488Z,13.9
2022-09-28T12:28:27.968Z,13.83
2022-09-28T12:29:28.490Z,13.93
2022-09-28T12:30:28.519Z,13.97
2022-09-28T12:31:28.411Z,14.03
2022-09-28T12:32:28.568Z,14.08
2022-09-28T12:33:28.592Z,14.03
2022-09-28T12:34:28.598Z,14.04
2022-09-28T12:35:28.349Z,14.07
2022-09-28T12:36:28.392Z,14.1
2022-09-28T12:37:28.649Z,14.07
2022-09-28T12:38:28.150Z,14.14
2022-09-28T12:40:00.354Z,14.17
2022-09-28T12:40:29.019Z,14.15
2022-09-28T12:41:28.715Z,14.18
2022-09-28T12:42:28.484Z,14.2
2022-09-28T12:43:28.789Z,14.17
2022-09-28T12:44:28.511Z,14.2
2022-09-28T12:45:28.558Z,14.17
2022-09-28T12:46:29.034Z,14.18
2022-09-28T12:47:28.562Z,14.17
2022-09-28T12:48:28.588Z,14.15
2022-09-28T12:50:50.063Z,14.12
2022-09-28T12:51:06.260Z,14.15
2022-09-28T12:52:05.728Z,14.15
2022-09-28T12:53:08.094Z,14.15
2022-09-28T12:54:05.765Z,14.05
2022-09-28T12:55:06.171Z,14.03
2022-09-28T12:56:05.527Z,14.04
2022-09-28T12:57:05.811Z,14.08
2022-09-28T12:58:05.825Z,14.04
2022-09-28T12:59:05.895Z,14.04